sensor_id;sensor_type;location;lat;lon;timestamp;pressure;altitude;pressure_sealevel;temperature;humidity
9672;BME280;4874;43.568;27.824;2022-11-21T00:00:26;98315.28;;;12.17;100.00
9672;BME280;4874;43.568;27.824;2022-11-21T00:02:53;98302.47;;;12.20;100.00
9672;BME280;4874;43.568;27.824;2022-11-21T00:05:19;98301.91;;;12.33;100.00
9672;BME280;4874;43.568;27.824;2022-11-21T00:07:46;98291.47;;;12.23;100.00
9672;BME280;4874;43.568;27.824;2022-11-21T00:10:13;98283.75;;;12.36;100.00
9672;BME280;4874;43.568;27.824;2022-11-21T00:12:39;98275.34;;;12.25;100.00
9672;BME280;4874;43.568;27.824;2022-11-21T00:15:06;98273.34;;;12.27;100.00
9672;BME280;4874;43.568;27.824;2022-11-21T00:17:33;98280.31;;;12.28;100.00
9672;BME280;4874;43.568;27.824;2022-11-21T00:20:00;98265.53;;;12.25;100.00
9672;BME280;4874;43.568;27.824;2022-11-21T00:22:26;98259.72;;;12.22;100.00
9672;BME280;4874;43.568;27.824;2022-11-21T00:24:53;98256.53;;;12.26;100.00
9672;BME280;4874;43.568;27.824;2022-11-21T00:27:20;98249.25;;;12.20;100.00
9672;BME280;4874;43.568;27.824;2022-11-21T00:29:46;98255.03;;;12.32;100.00
9672;BME280;4874;43.568;27.824;2022-11-21T00:32:13;98216.53;;;12.12;100.00
9672;BME280;4874;43.568;27.824;2022-11-21T00:34:40;98245.03;;;12.34;100.00
9672;BME280;4874;43.568;27.824;2022-11-21T00:37:06;98231.56;;;12.35;100.00
9672;BME280;4874;43.568;27.824;2022-11-21T00:39:33;98226.06;;;12.37;100.00
9672;BME280;4874;43.568;27.824;2022-11-21T00:41:59;98241.00;;;12.46;100.00
9672;BME280;4874;43.568;27.824;2022-11-21T00:44:26;98237.25;;;12.55;100.00
9672;BME280;4874;43.568;27.824;2022-11-21T00:46:53;98222.00;;;12.49;100.00
9672;BME280;4874;43.568;27.824;2022-11-21T00:49:20;98226.28;;;12.58;100.00
9672;BME280;4874;43.568;27.824;2022-11-21T00:51:46;98221.09;;;12.56;100.00
9672;BME280;4874;43.568;27.824;2022-11-21T00:54:13;98199.81;;;12.56;100.00
9672;BME280;4874;43.568;27.824;2022-11-21T00:56:39;98199.81;;;12.56;100.00
9672;BME280;4874;43.568;27.824;2022-11-21T00:59:06;98199.97;;;12.63;100.00
9672;BME280;4874;43.568;27.824;2022-11-21T01:01:33;98192.63;;;12.65;100.00
9672;BME280;4874;43.568;27.824;2022-11-21T01:03:59;98185.28;;;12.67;100.00
9672;BME280;4874;43.568;27.824;2022-11-21T01:06:26;98179.38;;;12.79;100.00
9672;BME280;4874;43.568;27.824;2022-11-21T01:08:53;98159.97;;;12.71;100.00
9672;BME280;4874;43.568;27.824;2022-11-21T01:11:20;98160.06;;;12.77;100.00
9672;BME280;4874;43.568;27.824;2022-11-21T01:13:47;98137.59;;;12.80;100.00
9672;BME280;4874;43.568;27.824;2022-11-21T01:16:20;98130.56;;;12.87;100.00
9672;BME280;4874;43.568;27.824;2022-11-21T01:18:47;98133.91;;;12.81;100.00
9672;BME280;4874;43.568;27.824;2022-11-21T01:21:21;98140.91;;;12.82;100.00
9672;BME280;4874;43.568;27.824;2022-11-21T01:23:48;98138.88;;;12.84;100.00
9672;BME280;4874;43.568;27.824;2022-11-21T01:26:18;98131.50;;;12.94;100.00
9672;BME280;4874;43.568;27.824;2022-11-21T01:28:46;98133.22;;;12.87;100.00
9672;BME280;4874;43.568;27.824;2022-11-21T01:31:15;98123.84;;;12.91;100.00
9672;BME280;4874;43.568;27.824;2022-11-21T01:33:42;98117.81;;;12.97;100.00
9672;BME280;4874;43.568;27.824;2022-11-21T01:36:21;98105.66;;;12.94;100.00
9672;BME280;4874;43.568;27.824;2022-11-21T01:38:52;98108.78;;;12.98;100.00
9672;BME280;4874;43.568;27.824;2022-11-21T01:41:26;98095.66;;;12.96;100.00
9672;BME280;4874;43.568;27.824;2022-11-21T01:43:55;98078.84;;;12.96;100.00
9672;BME280;4874;43.568;27.824;2022-11-21T01:46:22;98085.59;;;13.07;100.00
9672;BME280;4874;43.568;27.824;2022-11-21T01:51:24;98085.41;;;13.08;100.00
9672;BME280;4874;43.568;27.824;2022-11-21T01:56:28;98041.91;;;12.93;100.00
9672;BME280;4874;43.568;27.824;2022-11-21T01:58:58;98084.16;;;13.19;100.00
9672;BME280;4874;43.568;27.824;2022-11-21T02:01:26;98086.25;;;13.09;100.00
9672;BME280;4874;43.568;27.824;2022-11-21T02:03:55;98101.53;;;13.15;100.00
9672;BME280;4874;43.568;27.824;2022-11-21T02:06:24;98091.97;;;13.20;100.00
9672;BME280;4874;43.568;27.824;2022-11-21T02:08:51;98114.41;;;13.26;100.00
9672;BME280;4874;43.568;27.824;2022-11-21T02:11:41;98100.63;;;13.37;100.00
9672;BME280;4874;43.568;27.824;2022-11-21T02:14:10;98094.38;;;13.30;100.00
9672;BME280;4874;43.568;27.824;2022-11-21T02:16:37;98105.84;;;13.30;100.00
9672;BME280;4874;43.568;27.824;2022-11-21T02:19:07;98096.84;;;13.31;100.00
9672;BME280;4874;43.568;27.824;2022-11-21T02:25:08;98062.47;;;13.36;100.00
9672;BME280;4874;43.568;27.824;2022-11-21T02:27:35;98050.59;;;13.39;100.00
9672;BME280;4874;43.568;27.824;2022-11-21T02:30:02;98052.75;;;13.43;100.00
9672;BME280;4874;43.568;27.824;2022-11-21T02:32:35;98050.72;;;13.45;100.00
9672;BME280;4874;43.568;27.824;2022-11-21T02:35:02;98057.03;;;13.44;100.00
9672;BME280;4874;43.568;27.824;2022-11-21T02:37:30;98022.50;;;13.36;100.00
9672;BME280;4874;43.568;27.824;2022-11-21T02:40:00;98031.75;;;13.55;100.00
9672;BME280;4874;43.568;27.824;2022-11-21T02:42:42;98034.25;;;13.56;100.00
9672;BME280;4874;43.568;27.824;2022-11-21T02:45:27;98040.88;;;13.60;100.00
9672;BME280;4874;43.568;27.824;2022-11-21T02:47:55;98039.91;;;13.68;100.00
9672;BME280;4874;43.568;27.824;2022-11-21T02:50:35;98039.75;;;13.69;100.00
9672;BME280;4874;43.568;27.824;2022-11-21T02:53:04;98022.34;;;13.73;100.00
9672;BME280;4874;43.568;27.824;2022-11-21T02:55:31;98017.91;;;13.80;100.00
9672;BME280;4874;43.568;27.824;2022-11-21T02:57:58;98016.94;;;13.81;100.00
9672;BME280;4874;43.568;27.824;2022-11-21T03:00:30;98009.44;;;13.91;100.00
9672;BME280;4874;43.568;27.824;2022-11-21T03:02:58;97974.66;;;13.85;100.00
9672;BME280;4874;43.568;27.824;2022-11-21T03:05:24;97991.47;;;14.00;100.00
9672;BME280;4874;43.568;27.824;2022-11-21T03:07:51;97993.75;;;14.03;100.00
9672;BME280;4874;43.568;27.824;2022-11-21T03:10:17;97977.75;;;14.03;100.00
9672;BME280;4874;43.568;27.824;2022-11-21T03:12:44;97978.25;;;14.13;100.00
9672;BME280;4874;43.568;27.824;2022-11-21T03:15:13;97963.63;;;14.09;100.00
9672;BME280;4874;43.568;27.824;2022-11-21T03:17:40;97969.50;;;14.19;100.00
9672;BME280;4874;43.568;27.824;2022-11-21T03:20:08;97971.59;;;14.24;100.00
9672;BME280;4874;43.568;27.824;2022-11-21T03:22:35;97963.22;;;14.27;100.00
9672;BME280;4874;43.568;27.824;2022-11-21T03:25:02;97969.44;;;14.34;100.00
9672;BME280;4874;43.568;27.824;2022-11-21T03:27:29;97974.03;;;14.40;100.00
9672;BME280;4874;43.568;27.824;2022-11-21T03:29:55;97969.28;;;14.42;100.00
9672;BME280;4874;43.568;27.824;2022-11-21T03:32:22;97953.97;;;14.50;100.00
9672;BME280;4874;43.568;27.824;2022-11-21T03:34:48;97952.16;;;14.57;100.00
9672;BME280;4874;43.568;27.824;2022-11-21T03:37:15;97942.97;;;14.60;100.00
9672;BME280;4874;43.568;27.824;2022-11-21T03:39:42;97945.63;;;14.60;100.00
9672;BME280;4874;43.568;27.824;2022-11-21T03:42:09;97945.44;;;14.61;100.00
9672;BME280;4874;43.568;27.824;2022-11-21T03:44:35;97935.81;;;14.67;100.00
9672;BME280;4874;43.568;27.824;2022-11-21T03:47:02;97934.53;;;14.63;100.00
9672;BME280;4874;43.568;27.824;2022-11-21T03:49:29;97934.53;;;14.63;100.00
9672;BME280;4874;43.568;27.824;2022-11-21T03:51:55;97938.06;;;14.63;100.00
9672;BME280;4874;43.568;27.824;2022-11-21T03:54:22;97919.47;;;14.55;100.00
9672;BME280;4874;43.568;27.824;2022-11-21T03:56:49;97928.59;;;14.67;100.00
9672;BME280;4874;43.568;27.824;2022-11-21T03:59:15;97918.19;;;14.72;100.00
9672;BME280;4874;43.568;27.824;2022-11-21T04:01:42;97926.56;;;14.69;100.00
9672;BME280;4874;43.568;27.824;2022-11-21T04:04:09;97909.16;;;14.73;100.00
9672;BME280;4874;43.568;27.824;2022-11-21T04:06:35;97916.97;;;14.75;100.00
9672;BME280;4874;43.568;27.824;2022-11-21T04:09:02;97905.50;;;14.81;100.00
9672;BME280;4874;43.568;27.824;2022-11-21T04:11:29;97894.00;;;14.87;100.00
9672;BME280;4874;43.568;27.824;2022-11-21T04:13:55;97895.28;;;14.91;100.00
9672;BME280;4874;43.568;27.824;2022-11-21T04:16:22;97885.22;;;14.93;100.00
9672;BME280;4874;43.568;27.824;2022-11-21T04:18:49;97878.00;;;14.93;100.00
9672;BME280;4874;43.568;27.824;2022-11-21T04:21:16;97853.72;;;14.88;100.00
9672;BME280;4874;43.568;27.824;2022-11-21T04:23:42;97866.91;;;14.96;100.00
9672;BME280;4874;43.568;27.824;2022-11-21T04:26:09;97863.03;;;14.99;100.00
9672;BME280;4874;43.568;27.824;2022-11-21T04:28:36;97857.06;;;14.97;100.00
9672;BME280;4874;43.568;27.824;2022-11-21T04:31:03;97841.69;;;15.05;100.00
9672;BME280;4874;43.568;27.824;2022-11-21T04:33:35;97833.88;;;15.04;100.00
9672;BME280;4874;43.568;27.824;2022-11-21T04:36:02;97840.69;;;15.13;100.00
9672;BME280;4874;43.568;27.824;2022-11-21T04:38:28;97835.16;;;15.14;100.00
9672;BME280;4874;43.568;27.824;2022-11-21T04:40:55;97819.53;;;15.18;100.00
9672;BME280;4874;43.568;27.824;2022-11-21T04:43:22;97821.38;;;15.24;100.00
9672;BME280;4874;43.568;27.824;2022-11-21T04:45:48;97820.38;;;15.25;100.00
9672;BME280;4874;43.568;27.824;2022-11-21T04:48:15;97818.31;;;15.27;100.00
9672;BME280;4874;43.568;27.824;2022-11-21T04:50:42;97817.28;;;15.28;100.00
9672;BME280;4874;43.568;27.824;2022-11-21T04:53:10;97814.41;;;15.29;100.00
9672;BME280;4874;43.568;27.824;2022-11-21T04:55:37;97820.19;;;15.33;100.00
9672;BME280;4874;43.568;27.824;2022-11-21T04:58:03;97801.03;;;15.23;100.00
9672;BME280;4874;43.568;27.824;2022-11-21T05:00:30;97824.09;;;15.30;100.00
9672;BME280;4874;43.568;27.824;2022-11-21T05:03:04;97831.09;;;15.38;100.00
9672;BME280;4874;43.568;27.824;2022-11-21T05:05:31;97832.59;;;15.54;100.00
9672;BME280;4874;43.568;27.824;2022-11-21T05:07:58;97834.84;;;15.50;100.00
9672;BME280;4874;43.568;27.824;2022-11-21T05:10:24;97841.47;;;15.61;100.00
9672;BME280;4874;43.568;27.824;2022-11-21T05:12:58;97811.84;;;15.62;100.00
9672;BME280;4874;43.568;27.824;2022-11-21T05:15:44;97826.84;;;15.63;100.00
9672;BME280;4874;43.568;27.824;2022-11-21T05:18:11;97807.09;;;15.64;100.00
9672;BME280;4874;43.568;27.824;2022-11-21T05:20:38;97798.88;;;15.66;100.00
9672;BME280;4874;43.568;27.824;2022-11-21T05:23:04;97806.69;;;15.67;100.00
9672;BME280;4874;43.568;27.824;2022-11-21T05:25:31;97800.53;;;15.73;100.00
9672;BME280;4874;43.568;27.824;2022-11-21T05:27:58;97805.25;;;15.65;100.00
9672;BME280;4874;43.568;27.824;2022-11-21T05:30:25;97775.59;;;15.53;100.00
9672;BME280;4874;43.568;27.824;2022-11-21T05:32:52;97798.06;;;15.72;100.00
9672;BME280;4874;43.568;27.824;2022-11-21T05:35:18;97783.03;;;15.77;100.00
9672;BME280;4874;43.568;27.824;2022-11-21T05:37:45;97789.63;;;15.81;100.00
9672;BME280;4874;43.568;27.824;2022-11-21T05:40:11;97779.31;;;15.85;100.00
9672;BME280;4874;43.568;27.824;2022-11-21T05:42:39;97789.81;;;15.86;100.00
9672;BME280;4874;43.568;27.824;2022-11-21T05:45:26;97785.91;;;15.82;100.00
9672;BME280;4874;43.568;27.824;2022-11-21T05:47:52;97780.56;;;15.69;100.00
9672;BME280;4874;43.568;27.824;2022-11-21T05:50:19;97797.66;;;15.81;100.00
9672;BME280;4874;43.568;27.824;2022-11-21T05:52:46;97792.69;;;15.91;100.00
9672;BME280;4874;43.568;27.824;2022-11-21T05:55:13;97797.63;;;15.94;100.00
9672;BME280;4874;43.568;27.824;2022-11-21T05:57:39;97793.09;;;16.01;100.00
9672;BME280;4874;43.568;27.824;2022-11-21T06:00:06;97780.97;;;15.86;100.00
9672;BME280;4874;43.568;27.824;2022-11-21T06:02:33;97811.22;;;15.86;100.00
9672;BME280;4874;43.568;27.824;2022-11-21T06:05:19;97808.56;;;15.86;100.00
9672;BME280;4874;43.568;27.824;2022-11-21T06:07:45;97813.06;;;15.92;100.00
9672;BME280;4874;43.568;27.824;2022-11-21T06:10:12;97815.97;;;15.91;100.00
9672;BME280;4874;43.568;27.824;2022-11-21T06:12:39;97819.06;;;16.01;100.00
9672;BME280;4874;43.568;27.824;2022-11-21T06:15:06;97821.09;;;15.92;100.00
9672;BME280;4874;43.568;27.824;2022-11-21T06:17:33;97847.28;;;15.90;100.00
9672;BME280;4874;43.568;27.824;2022-11-21T06:19:59;97859.97;;;15.62;100.00
9672;BME280;4874;43.568;27.824;2022-11-21T06:22:26;97863.66;;;15.48;100.00
9672;BME280;4874;43.568;27.824;2022-11-21T06:24:53;97850.25;;;15.42;100.00
9672;BME280;4874;43.568;27.824;2022-11-21T06:27:19;97841.38;;;15.34;100.00
9672;BME280;4874;43.568;27.824;2022-11-21T06:29:46;97831.34;;;15.50;100.00
9672;BME280;4874;43.568;27.824;2022-11-21T06:32:12;97829.09;;;15.53;100.00
9672;BME280;4874;43.568;27.824;2022-11-21T06:34:39;97822.53;;;15.62;100.00
9672;BME280;4874;43.568;27.824;2022-11-21T06:37:06;97816.97;;;15.64;100.00
9672;BME280;4874;43.568;27.824;2022-11-21T06:39:32;97824.41;;;15.68;100.00
9672;BME280;4874;43.568;27.824;2022-11-21T06:42:00;97819.22;;;15.67;100.00
9672;BME280;4874;43.568;27.824;2022-11-21T06:44:27;97792.91;;;15.70;100.00
9672;BME280;4874;43.568;27.824;2022-11-21T06:46:54;97785.50;;;15.72;100.00
9672;BME280;4874;43.568;27.824;2022-11-21T06:49:20;97779.72;;;15.75;100.00
9672;BME280;4874;43.568;27.824;2022-11-21T06:51:47;97756.28;;;15.51;100.00
9672;BME280;4874;43.568;27.824;2022-11-21T06:54:14;97781.59;;;15.88;100.00
9672;BME280;4874;43.568;27.824;2022-11-21T06:56:42;97771.94;;;15.87;100.00
9672;BME280;4874;43.568;27.824;2022-11-21T06:59:10;97768.00;;;15.89;100.00
9672;BME280;4874;43.568;27.824;2022-11-21T07:01:36;97760.59;;;15.91;100.00
9672;BME280;4874;43.568;27.824;2022-11-21T07:04:03;97760.59;;;15.85;100.00
9672;BME280;4874;43.568;27.824;2022-11-21T07:06:30;97776.66;;;15.85;100.00
9672;BME280;4874;43.568;27.824;2022-11-21T07:08:57;97776.44;;;15.80;100.00
9672;BME280;4874;43.568;27.824;2022-11-21T07:11:43;97788.19;;;15.92;100.00
9672;BME280;4874;43.568;27.824;2022-11-21T07:14:10;97794.75;;;15.89;100.00
9672;BME280;4874;43.568;27.824;2022-11-21T07:16:37;97761.22;;;15.80;100.00
9672;BME280;4874;43.568;27.824;2022-11-21T07:19:04;97774.19;;;15.90;100.00
9672;BME280;4874;43.568;27.824;2022-11-21T07:21:31;97784.06;;;15.89;100.00
9672;BME280;4874;43.568;27.824;2022-11-21T07:23:58;97774.59;;;15.87;100.00
9672;BME280;4874;43.568;27.824;2022-11-21T07:26:25;97788.81;;;15.94;100.00
9672;BME280;4874;43.568;27.824;2022-11-21T07:28:51;97794.56;;;15.97;100.00
9672;BME280;4874;43.568;27.824;2022-11-21T07:31:18;97797.66;;;16.01;100.00
9672;BME280;4874;43.568;27.824;2022-11-21T07:33:45;97801.56;;;15.98;100.00
9672;BME280;4874;43.568;27.824;2022-11-21T07:36:13;97688.75;;;15.29;100.00
9672;BME280;4874;43.568;27.824;2022-11-21T07:38:39;97801.34;;;15.93;100.00
9672;BME280;4874;43.568;27.824;2022-11-21T07:41:08;97795.19;;;16.06;100.00
9672;BME280;4874;43.568;27.824;2022-11-21T07:43:34;97795.59;;;15.96;100.00
9672;BME280;4874;43.568;27.824;2022-11-21T07:46:01;97804.00;;;16.06;100.00
9672;BME280;4874;43.568;27.824;2022-11-21T07:48:28;97791.25;;;16.08;100.00
9672;BME280;4874;43.568;27.824;2022-11-21T07:50:55;97773.97;;;16.11;100.00
9672;BME280;4874;43.568;27.824;2022-11-21T07:53:21;97765.72;;;16.06;100.00
9672;BME280;4874;43.568;27.824;2022-11-21T07:55:49;97770.22;;;16.18;100.00
9672;BME280;4874;43.568;27.824;2022-11-21T07:58:16;97765.72;;;16.12;100.00
9672;BME280;4874;43.568;27.824;2022-11-21T08:00:43;97777.66;;;16.10;100.00
9672;BME280;4874;43.568;27.824;2022-11-21T08:03:11;97785.88;;;16.15;100.00
9672;BME280;4874;43.568;27.824;2022-11-21T08:05:40;97775.75;;;16.36;100.00
9672;BME280;4874;43.568;27.824;2022-11-21T08:08:08;97775.91;;;16.61;100.00
9672;BME280;4874;43.568;27.824;2022-11-21T08:10:40;97779.00;;;16.71;100.00
9672;BME280;4874;43.568;27.824;2022-11-21T08:13:08;97776.47;;;16.83;100.00
9672;BME280;4874;43.568;27.824;2022-11-21T08:15:35;97769.47;;;16.75;100.00
9672;BME280;4874;43.568;27.824;2022-11-21T08:18:07;97759.78;;;16.81;100.00
9672;BME280;4874;43.568;27.824;2022-11-21T08:20:34;97764.03;;;16.95;100.00
9672;BME280;4874;43.568;27.824;2022-11-21T08:23:01;97765.25;;;16.99;100.00
9672;BME280;4874;43.568;27.824;2022-11-21T08:25:28;97751.41;;;17.08;100.00
9672;BME280;4874;43.568;27.824;2022-11-21T08:27:55;97746.88;;;17.02;100.00
9672;BME280;4874;43.568;27.824;2022-11-21T08:30:23;97760.84;;;17.11;100.00
9672;BME280;4874;43.568;27.824;2022-11-21T08:32:49;97734.78;;;16.93;100.00
9672;BME280;4874;43.568;27.824;2022-11-21T08:35:16;97765.72;;;17.27;100.00
9672;BME280;4874;43.568;27.824;2022-11-21T08:37:43;97765.91;;;17.32;100.00
9672;BME280;4874;43.568;27.824;2022-11-21T08:40:10;97748.00;;;17.26;100.00
9672;BME280;4874;43.568;27.824;2022-11-21T08:42:37;97766.75;;;17.64;100.00
9672;BME280;4874;43.568;27.824;2022-11-21T08:45:04;97757.53;;;17.53;100.00
9672;BME280;4874;43.568;27.824;2022-11-21T08:47:32;97765.25;;;17.68;100.00
9672;BME280;4874;43.568;27.824;2022-11-21T08:49:59;97753.06;;;17.72;100.00
9672;BME280;4874;43.568;27.824;2022-11-21T08:52:31;97761.72;;;17.74;100.00
9672;BME280;4874;43.568;27.824;2022-11-21T08:54:57;97761.59;;;17.87;100.00
9672;BME280;4874;43.568;27.824;2022-11-21T08:57:24;97765.28;;;17.92;100.00
9672;BME280;4874;43.568;27.824;2022-11-21T08:59:51;97745.88;;;17.90;100.00
9672;BME280;4874;43.568;27.824;2022-11-21T09:02:17;97754.91;;;17.96;100.00
9672;BME280;4874;43.568;27.824;2022-11-21T09:04:44;97740.75;;;18.07;100.00
9672;BME280;4874;43.568;27.824;2022-11-21T09:07:11;97715.63;;;18.01;100.00
9672;BME280;4874;43.568;27.824;2022-11-21T09:09:38;97731.59;;;18.14;100.00
9672;BME280;4874;43.568;27.824;2022-11-21T09:12:04;97735.59;;;18.05;100.00
9672;BME280;4874;43.568;27.824;2022-11-21T09:14:31;97725.31;;;18.20;100.00
9672;BME280;4874;43.568;27.824;2022-11-21T09:17:16;97727.44;;;18.18;100.00
9672;BME280;4874;43.568;27.824;2022-11-21T09:20:02;97729.97;;;18.31;100.00
9672;BME280;4874;43.568;27.824;2022-11-21T09:22:31;97691.91;;;18.16;100.00
9672;BME280;4874;43.568;27.824;2022-11-21T09:24:58;97702.31;;;18.49;100.00
9672;BME280;4874;43.568;27.824;2022-11-21T09:27:24;97724.09;;;18.59;100.00
9672;BME280;4874;43.568;27.824;2022-11-21T09:29:51;97722.31;;;18.71;100.00
9672;BME280;4874;43.568;27.824;2022-11-21T09:32:19;97714.88;;;18.85;100.00
9672;BME280;4874;43.568;27.824;2022-11-21T09:34:46;97693.41;;;18.66;100.00
9672;BME280;4874;43.568;27.824;2022-11-21T09:37:14;97697.91;;;18.54;100.00
9672;BME280;4874;43.568;27.824;2022-11-21T09:39:40;97714.84;;;18.73;100.00
9672;BME280;4874;43.568;27.824;2022-11-21T09:47:43;97668.91;;;18.74;100.00
9672;BME280;4874;43.568;27.824;2022-11-21T09:52:57;97691.53;;;18.85;100.00
9672;BME280;4874;43.568;27.824;2022-11-21T09:55:35;97683.94;;;18.94;100.00
9672;BME280;4874;43.568;27.824;2022-11-21T10:00:43;97682.44;;;18.98;100.00
9672;BME280;4874;43.568;27.824;2022-11-21T10:03:11;97672.25;;;19.00;100.00
9672;BME280;4874;43.568;27.824;2022-11-21T10:05:47;97664.16;;;19.18;100.00
9672;BME280;4874;43.568;27.824;2022-11-21T10:08:41;97670.06;;;19.38;100.00
9672;BME280;4874;43.568;27.824;2022-11-21T10:14:18;97661.53;;;19.41;100.00
9672;BME280;4874;43.568;27.824;2022-11-21T10:16:59;97649.97;;;19.52;100.00
9672;BME280;4874;43.568;27.824;2022-11-21T10:19:44;97635.31;;;19.59;100.00
9672;BME280;4874;43.568;27.824;2022-11-21T10:25:13;97622.22;;;19.40;100.00
9672;BME280;4874;43.568;27.824;2022-11-21T10:27:48;97625.97;;;19.50;100.00
9672;BME280;4874;43.568;27.824;2022-11-21T10:30:19;97614.72;;;19.42;100.00
9672;BME280;4874;43.568;27.824;2022-11-21T10:32:50;97619.06;;;19.66;100.00
9672;BME280;4874;43.568;27.824;2022-11-21T10:35:25;97601.38;;;19.35;100.00
9672;BME280;4874;43.568;27.824;2022-11-21T10:38:02;97623.72;;;19.36;100.00
9672;BME280;4874;43.568;27.824;2022-11-21T10:40:43;97645.13;;;19.42;100.00
9672;BME280;4874;43.568;27.824;2022-11-21T10:46:21;97633.22;;;19.96;100.00
9672;BME280;4874;43.568;27.824;2022-11-21T10:49:01;97552.09;;;19.69;100.00
9672;BME280;4874;43.568;27.824;2022-11-21T10:51:41;97627.66;;;20.14;100.00
9672;BME280;4874;43.568;27.824;2022-11-21T10:54:12;97625.47;;;20.00;100.00
9672;BME280;4874;43.568;27.824;2022-11-21T10:59:32;97614.09;;;20.32;100.00
9672;BME280;4874;43.568;27.824;2022-11-21T11:02:02;97609.28;;;20.11;100.00
9672;BME280;4874;43.568;27.824;2022-11-21T11:04:47;97614.47;;;20.24;100.00
9672;BME280;4874;43.568;27.824;2022-11-21T11:07:25;97624.88;;;20.32;100.00
9672;BME280;4874;43.568;27.824;2022-11-21T11:10:14;97627.81;;;20.31;100.00
9672;BME280;4874;43.568;27.824;2022-11-21T11:12:41;97640.94;;;20.27;100.00
9672;BME280;4874;43.568;27.824;2022-11-21T11:15:27;97615.84;;;20.15;100.00
9672;BME280;4874;43.568;27.824;2022-11-21T11:17:56;97632.47;;;20.35;100.00
9672;BME280;4874;43.568;27.824;2022-11-21T11:20:37;97643.19;;;20.58;100.00
9672;BME280;4874;43.568;27.824;2022-11-21T11:25:49;97610.84;;;20.07;100.00
9672;BME280;4874;43.568;27.824;2022-11-21T11:28:17;97616.34;;;20.01;100.00
9672;BME280;4874;43.568;27.824;2022-11-21T11:30:45;97595.41;;;19.68;100.00
9672;BME280;4874;43.568;27.824;2022-11-21T11:33:34;97624.47;;;19.66;100.00
9672;BME280;4874;43.568;27.824;2022-11-21T11:36:36;97627.13;;;19.54;100.00
9672;BME280;4874;43.568;27.824;2022-11-21T11:39:16;97605.94;;;19.35;100.00
9672;BME280;4874;43.568;27.824;2022-11-21T11:42:05;97651.13;;;19.56;100.00
9672;BME280;4874;43.568;27.824;2022-11-21T11:47:54;97717.72;;;16.04;100.00
9672;BME280;4874;43.568;27.824;2022-11-21T11:50:35;97744.34;;;15.47;100.00
9672;BME280;4874;43.568;27.824;2022-11-21T11:55:51;97754.19;;;15.53;100.00
9672;BME280;4874;43.568;27.824;2022-11-21T11:58:42;97764.69;;;15.81;100.00
9672;BME280;4874;43.568;27.824;2022-11-21T12:04:09;97790.75;;;15.20;100.00
9672;BME280;4874;43.568;27.824;2022-11-21T12:06:44;97779.78;;;15.02;100.00
9672;BME280;4874;43.568;27.824;2022-11-21T12:21:04;97817.44;;;14.04;100.00
9672;BME280;4874;43.568;27.824;2022-11-21T12:24:01;97822.06;;;13.89;100.00
9672;BME280;4874;43.568;27.824;2022-11-21T12:35:35;97843.16;;;13.63;100.00
9672;BME280;4874;43.568;27.824;2022-11-21T12:44:17;97885.38;;;13.24;100.00
9672;BME280;4874;43.568;27.824;2022-11-21T12:57:43;97859.13;;;13.42;100.00
9672;BME280;4874;43.568;27.824;2022-11-21T13:00:31;97857.53;;;13.27;100.00
9672;BME280;4874;43.568;27.824;2022-11-21T13:03:36;97860.03;;;13.49;100.00
9672;BME280;4874;43.568;27.824;2022-11-21T13:06:13;97867.97;;;13.43;100.00
9672;BME280;4874;43.568;27.824;2022-11-21T13:08:41;97869.38;;;13.60;100.00
9672;BME280;4874;43.568;27.824;2022-11-21T13:11:33;97865.38;;;13.70;100.00
9672;BME280;4874;43.568;27.824;2022-11-21T13:17:19;97868.25;;;13.69;100.00
9672;BME280;4874;43.568;27.824;2022-11-21T13:19:55;97854.81;;;13.41;100.00
9672;BME280;4874;43.568;27.824;2022-11-21T13:25:11;97867.19;;;13.28;100.00
9672;BME280;4874;43.568;27.824;2022-11-21T13:27:44;97880.69;;;13.62;100.00
9672;BME280;4874;43.568;27.824;2022-11-21T14:14:48;97945.75;;;12.88;100.00
9672;BME280;4874;43.568;27.824;2022-11-21T14:17:26;97943.25;;;13.01;100.00
9672;BME280;4874;43.568;27.824;2022-11-21T14:19:56;97942.91;;;12.75;100.00
9672;BME280;4874;43.568;27.824;2022-11-21T14:22:30;97945.84;;;12.94;100.00
9672;BME280;4874;43.568;27.824;2022-11-21T14:25:05;97968.75;;;12.52;100.00
9672;BME280;4874;43.568;27.824;2022-11-21T14:27:37;97961.69;;;12.59;100.00
9672;BME280;4874;43.568;27.824;2022-11-21T14:30:53;97958.47;;;12.63;100.00
9672;BME280;4874;43.568;27.824;2022-11-21T14:33:20;97926.16;;;12.52;100.00
9672;BME280;4874;43.568;27.824;2022-11-21T14:35:51;97943.06;;;12.59;100.00
9672;BME280;4874;43.568;27.824;2022-11-21T14:38:19;97943.06;;;12.59;100.00
9672;BME280;4874;43.568;27.824;2022-11-21T14:40:47;97946.91;;;12.56;100.00
9672;BME280;4874;43.568;27.824;2022-11-21T14:43:29;97967.00;;;12.44;100.00
9672;BME280;4874;43.568;27.824;2022-11-21T14:45:58;97960.63;;;12.31;100.00
9672;BME280;4874;43.568;27.824;2022-11-21T14:48:29;97962.31;;;12.46;100.00
9672;BME280;4874;43.568;27.824;2022-11-21T14:50:57;97942.25;;;12.21;100.00
9672;BME280;4874;43.568;27.824;2022-11-21T14:53:25;97986.63;;;12.43;100.00
9672;BME280;4874;43.568;27.824;2022-11-21T14:55:53;97981.91;;;12.31;100.00
9672;BME280;4874;43.568;27.824;2022-11-21T14:58:25;97980.31;;;12.44;100.00
9672;BME280;4874;43.568;27.824;2022-11-21T15:06:27;97978.63;;;12.29;100.00
9672;BME280;4874;43.568;27.824;2022-11-21T15:08:59;97976.06;;;12.13;100.00
9672;BME280;4874;43.568;27.824;2022-11-21T15:17:33;98001.75;;;12.43;100.00
9672;BME280;4874;43.568;27.824;2022-11-21T15:22:39;98006.50;;;12.33;100.00
9672;BME280;4874;43.568;27.824;2022-11-21T15:25:17;98001.19;;;12.33;100.00
9672;BME280;4874;43.568;27.824;2022-11-21T15:27:51;98009.91;;;12.27;100.00
9672;BME280;4874;43.568;27.824;2022-11-21T15:30:32;98006.19;;;12.13;100.00
9672;BME280;4874;43.568;27.824;2022-11-21T15:41:04;98039.53;;;12.24;100.00
9672;BME280;4874;43.568;27.824;2022-11-21T15:46:03;98057.06;;;11.79;100.00
9672;BME280;4874;43.568;27.824;2022-11-21T15:48:30;98051.66;;;11.96;100.00
9672;BME280;4874;43.568;27.824;2022-11-21T15:50:57;98049.25;;;11.78;100.00